Terminal Aerodrome Forecast
Issued by NWS Austin/San Antonio, TX

Home | Current Version | Previous Version | Text Only | Print | Product List | Glossary On
Versions: 1 2 3 4 5 6 7 8 9 10 11 12 13 14 15 16 17
000
FTUS44 KEWX 202300
TAFDRT
TAF
KDRT 202323Z 2100/2124 13008KT P6SM BKN035 OVC060
     FM211000 10006KT P6SM OVC015
     FM211800 13010KT P6SM BKN035=

USA.gov is the U.S. government's official web portal to all federal, state and local government web resources and services.